Time;durP1;ratioP1;P1;durP2;ratioP2;P2;SDS_P1;SDS_P2;PMS_P1;PMS_P2;Temp;Humidity;BMP_temperature;BMP_pressure;BME280_temperature;BME280_humidity;BME280_pressure;Samples;Min_cycle;Max_cycle;Signal;HPM_P1;HPM_P2
2019/08/21 00:00:27;;;;;;;5.349999;4.849999;;;;;;;13.06;100;96329.77;;;;
2019/08/21 00:01:55;;;;;;;5.349999;4.849999;;;;;;;13.06;100;96329.77;;;;
2019/08/21 00:02:58;;;;;;;5.349999;4.849999;;;;;;;13.06;100;96329.77;;;;
2019/08/21 00:04:02;;;;;;;5.349999;4.849999;;;;;;;13.06;100;96329.77;;;;
2019/08/21 00:05:05;;;;;;;5.349999;4.849999;;;;;;;13.06;100;96329.77;;;;
2019/08/21 00:06:07;;;;;;;5.349999;4.849999;;;;;;;13.06;100;96329.77;;;;
2019/08/21 00:07:11;;;;;;;5.349999;4.849999;;;;;;;13.06;100;96329.77;;;;
2019/08/21 00:08:13;;;;;;;5.349999;4.849999;;;;;;;13.06;100;96329.77;;;;
2019/08/21 00:09:15;;;;;;;5.349999;4.849999;;;;;;;13.06;100;96329.77;;;;
2019/08/21 00:10:55;;;;;;;6.7;5.349999;;;;;;;12.98;100;96327.76;;;;
2019/08/21 00:12:20;;;;;;;6.7;5.349999;;;;;;;12.98;100;96327.76;;;;
2019/08/21 00:13:23;;;;;;;6.7;5.349999;;;;;;;12.98;100;96327.76;;;;
2019/08/21 00:14:28;;;;;;;6.7;5.349999;;;;;;;12.98;100;96327.76;;;;
2019/08/21 00:15:30;;;;;;;6.7;5.349999;;;;;;;12.98;100;96327.76;;;;
2019/08/21 00:16:33;;;;;;;6.7;5.349999;;;;;;;12.98;100;96327.76;;;;
2019/08/21 00:17:35;;;;;;;6.7;5.349999;;;;;;;12.98;100;96327.76;;;;
2019/08/21 00:18:37;;;;;;;6.7;5.349999;;;;;;;12.98;100;96327.76;;;;
2019/08/21 00:19:39;;;;;;;6.7;5.349999;;;;;;;12.98;100;96327.76;;;;
2019/08/21 00:20:40;;;;;;;5.9;5.05;;;;;;;12.99;100;96341.74;;;;
2019/08/21 00:21:58;;;;;;;5.9;5.05;;;;;;;12.99;100;96341.74;;;;
2019/08/21 00:22:59;;;;;;;5.9;5.05;;;;;;;12.99;100;96341.74;;;;
2019/08/21 00:24:01;;;;;;;5.9;5.05;;;;;;;12.99;100;96341.74;;;;
2019/08/21 00:25:03;;;;;;;5.9;5.05;;;;;;;12.99;100;96341.74;;;;
2019/08/21 00:26:04;;;;;;;5.9;5.05;;;;;;;12.99;100;96341.74;;;;
2019/08/21 00:27:06;;;;;;;5.9;5.05;;;;;;;12.99;100;96341.74;;;;
2019/08/21 00:28:44;;;;;;;5.9;5.05;;;;;;;12.99;100;96341.74;;;;
2019/08/21 00:29:50;;;;;;;5.9;5.05;;;;;;;12.99;100;96341.74;;;;
2019/08/21 00:30:52;;;;;;;6;5.25;;;;;;;12.93;100;96342.1;;;;
2019/08/21 00:31:56;;;;;;;6;5.25;;;;;;;12.93;100;96342.1;;;;
2019/08/21 00:32:59;;;;;;;6;5.25;;;;;;;12.93;100;96342.1;;;;
2019/08/21 00:34:01;;;;;;;6;5.25;;;;;;;12.93;100;96342.1;;;;
2019/08/21 00:35:04;;;;;;;6;5.25;;;;;;;12.93;100;96342.1;;;;
2019/08/21 00:36:07;;;;;;;6;5.25;;;;;;;12.93;100;96342.1;;;;
2019/08/21 00:37:09;;;;;;;6;5.25;;;;;;;12.93;100;96342.1;;;;
2019/08/21 00:38:10;;;;;;;6;5.25;;;;;;;12.93;100;96342.1;;;;
2019/08/21 00:39:12;;;;;;;6;5.25;;;;;;;12.93;100;96342.1;;;;
2019/08/21 00:40:19;;;;;;;6;5.25;;;;;;;12.93;100;96342.1;;;;
2019/08/21 00:41:38;;;;;;;7.05;5.45;;;;;;;12.95;100;96337.67;;;;
2019/08/21 00:42:40;;;;;;;7.05;5.45;;;;;;;12.95;100;96337.67;;;;
2019/08/21 00:43:42;;;;;;;7.05;5.45;;;;;;;12.95;100;96337.67;;;;
2019/08/21 00:44:43;;;;;;;7.05;5.45;;;;;;;12.95;100;96337.67;;;;
2019/08/21 00:45:44;;;;;;;7.05;5.45;;;;;;;12.95;100;96337.67;;;;
2019/08/21 00:46:46;;;;;;;7.05;5.45;;;;;;;12.95;100;96337.67;;;;
2019/08/21 00:47:47;;;;;;;7.05;5.45;;;;;;;12.95;100;96337.67;;;;
2019/08/21 00:48:48;;;;;;;7.05;5.45;;;;;;;12.95;100;96337.67;;;;
2019/08/21 00:49:50;;;;;;;7.05;5.45;;;;;;;12.95;100;96337.67;;;;
2019/08/21 00:50:51;;;;;;;7.05;5.45;;;;;;;12.95;100;96337.67;;;;
2019/08/21 00:51:52;;;;;;;6.199999;5.25;;;;;;;12.93;100;96359.3;;;;
2019/08/21 00:52:54;;;;;;;6.199999;5.25;;;;;;;12.93;100;96359.3;;;;
2019/08/21 00:53:55;;;;;;;6.199999;5.25;;;;;;;12.93;100;96359.3;;;;
2019/08/21 00:54:57;;;;;;;6.199999;5.25;;;;;;;12.93;100;96359.3;;;;
2019/08/21 00:55:58;;;;;;;6.199999;5.25;;;;;;;12.93;100;96359.3;;;;
2019/08/21 00:57:00;;;;;;;6.199999;5.25;;;;;;;12.93;100;96359.3;;;;
2019/08/21 00:58:02;;;;;;;6.199999;5.25;;;;;;;12.93;100;96359.3;;;;
2019/08/21 00:59:05;;;;;;;6.199999;5.25;;;;;;;12.93;100;96359.3;;;;
2019/08/21 01:00:08;;;;;;;6.199999;5.25;;;;;;;12.93;100;96359.3;;;;
2019/08/21 01:01:12;;;;;;;6.199999;5.25;;;;;;;12.93;100;96359.3;;;;
2019/08/21 01:02:15;;;;;;;6.199999;5.25;;;;;;;12.93;100;96359.3;;;;
2019/08/21 01:03:17;;;;;;;6.599999;5.799999;;;;;;;12.95;100;96351.23;;;;
2019/08/21 01:04:19;;;;;;;6.599999;5.799999;;;;;;;12.95;100;96351.23;;;;
2019/08/21 01:05:22;;;;;;;6.599999;5.799999;;;;;;;12.95;100;96351.23;;;;
2019/08/21 01:06:24;;;;;;;6.599999;5.799999;;;;;;;12.95;100;96351.23;;;;
2019/08/21 01:07:26;;;;;;;6.599999;5.799999;;;;;;;12.95;100;96351.23;;;;
2019/08/21 01:08:27;;;;;;;6.599999;5.799999;;;;;;;12.95;100;96351.23;;;;
2019/08/21 01:09:30;;;;;;;6.599999;5.799999;;;;;;;12.95;100;96351.23;;;;
2019/08/21 01:10:32;;;;;;;6.599999;5.799999;;;;;;;12.95;100;96351.23;;;;
2019/08/21 01:11:34;;;;;;;6.599999;5.799999;;;;;;;12.95;100;96351.23;;;;
2019/08/21 01:12:37;;;;;;;6.599999;5.799999;;;;;;;12.95;100;96351.23;;;;
2019/08/21 01:13:38;;;;;;;7.799999;6.3;;;;;;;12.94;100;96365.85;;;;
2019/08/21 01:14:41;;;;;;;7.799999;6.3;;;;;;;12.94;100;96365.85;;;;
2019/08/21 01:15:42;;;;;;;7.799999;6.3;;;;;;;12.94;100;96365.85;;;;
2019/08/21 01:16:44;;;;;;;7.799999;6.3;;;;;;;12.94;100;96365.85;;;;
2019/08/21 01:17:46;;;;;;;7.799999;6.3;;;;;;;12.94;100;96365.85;;;;
2019/08/21 01:18:48;;;;;;;7.799999;6.3;;;;;;;12.94;100;96365.85;;;;
2019/08/21 01:19:49;;;;;;;7.799999;6.3;;;;;;;12.94;100;96365.85;;;;
2019/08/21 01:20:51;;;;;;;7.799999;6.3;;;;;;;12.94;100;96365.85;;;;
2019/08/21 01:21:53;;;;;;;7.799999;6.3;;;;;;;12.94;100;96365.85;;;;
2019/08/21 01:22:54;;;;;;;7.799999;6.3;;;;;;;12.94;100;96365.85;;;;
2019/08/21 01:23:56;;;;;;;7.9;6.3;;;;;;;13;100;96373.61;;;;
2019/08/21 01:24:57;;;;;;;7.9;6.3;;;;;;;13;100;96373.61;;;;
2019/08/21 01:25:59;;;;;;;7.9;6.3;;;;;;;13;100;96373.61;;;;
2019/08/21 01:27:02;;;;;;;7.9;6.3;;;;;;;13;100;96373.61;;;;
2019/08/21 01:28:04;;;;;;;7.9;6.3;;;;;;;13;100;96373.61;;;;
2019/08/21 01:29:07;;;;;;;7.9;6.3;;;;;;;13;100;96373.61;;;;
2019/08/21 01:30:10;;;;;;;7.9;6.3;;;;;;;13;100;96373.61;;;;
2019/08/21 01:31:31;;;;;;;7.9;6.3;;;;;;;13;100;96373.61;;;;
2019/08/21 01:32:42;;;;;;;7.9;6.3;;;;;;;13;100;96373.61;;;;
2019/08/21 01:33:44;;;;;;;7.9;6.3;;;;;;;13;100;96373.61;;;;
2019/08/21 01:34:46;;;;;;;7.949999;7.099999;;;;;;;12.99;100;96385.92;;;;
2019/08/21 01:35:49;;;;;;;7.949999;7.099999;;;;;;;12.99;100;96385.92;;;;
2019/08/21 01:36:51;;;;;;;7.949999;7.099999;;;;;;;12.99;100;96385.92;;;;
2019/08/21 01:37:54;;;;;;;7.949999;7.099999;;;;;;;12.99;100;96385.92;;;;
2019/08/21 01:38:55;;;;;;;7.949999;7.099999;;;;;;;12.99;100;96385.92;;;;
2019/08/21 01:39:57;;;;;;;7.949999;7.099999;;;;;;;12.99;100;96385.92;;;;
2019/08/21 01:40:59;;;;;;;7.949999;7.099999;;;;;;;12.99;100;96385.92;;;;
2019/08/21 01:42:01;;;;;;;7.949999;7.099999;;;;;;;12.99;100;96385.92;;;;
2019/08/21 01:43:05;;;;;;;7.949999;7.099999;;;;;;;12.99;100;96385.92;;;;
2019/08/21 01:44:07;;;;;;;7.949999;7.099999;;;;;;;12.99;100;96385.92;;;;
2019/08/21 01:45:09;;;;;;;8;7.1;;;;;;;13.07;100;96356.27;;;;
2019/08/21 01:46:12;;;;;;;8;7.1;;;;;;;13.07;100;96356.27;;;;
2019/08/21 01:47:15;;;;;;;8;7.1;;;;;;;13.07;100;96356.27;;;;
2019/08/21 01:48:16;;;;;;;8;7.1;;;;;;;13.07;100;96356.27;;;;
2019/08/21 01:49:19;;;;;;;8;7.1;;;;;;;13.07;100;96356.27;;;;
2019/08/21 01:50:21;;;;;;;8;7.1;;;;;;;13.07;100;96356.27;;;;
2019/08/21 01:51:24;;;;;;;8;7.1;;;;;;;13.07;100;96356.27;;;;
2019/08/21 01:52:26;;;;;;;8;7.1;;;;;;;13.07;100;96356.27;;;;
2019/08/21 01:53:27;;;;;;;8;7.1;;;;;;;13.07;100;96356.27;;;;
2019/08/21 01:54:29;;;;;;;8;7.1;;;;;;;13.07;100;96356.27;;;;
2019/08/21 01:55:31;;;;;;;7.85;6.65;;;;;;;13.07;100;96362.2;;;;
2019/08/21 01:56:33;;;;;;;7.85;6.65;;;;;;;13.07;100;96362.2;;;;
2019/08/21 01:57:35;;;;;;;7.85;6.65;;;;;;;13.07;100;96362.2;;;;
2019/08/21 01:58:37;;;;;;;7.85;6.65;;;;;;;13.07;100;96362.2;;;;
2019/08/21 01:59:39;;;;;;;7.85;6.65;;;;;;;13.07;100;96362.2;;;;
2019/08/21 02:00:41;;;;;;;7.85;6.65;;;;;;;13.07;100;96362.2;;;;
2019/08/21 02:01:48;;;;;;;7.85;6.65;;;;;;;13.07;100;96362.2;;;;
2019/08/21 02:02:50;;;;;;;7.85;6.65;;;;;;;13.07;100;96362.2;;;;
2019/08/21 02:03:53;;;;;;;7.85;6.65;;;;;;;13.07;100;96362.2;;;;
2019/08/21 02:04:55;;;;;;;7.85;6.65;;;;;;;13.07;100;96362.2;;;;
2019/08/21 02:05:57;;;;;;;11.7;9;;;;;;;13.13;100;96363.19;;;;
2019/08/21 02:07:00;;;;;;;11.7;9;;;;;;;13.13;100;96363.19;;;;
2019/08/21 02:08:02;;;;;;;11.7;9;;;;;;;13.13;100;96363.19;;;;
2019/08/21 02:09:06;;;;;;;11.7;9;;;;;;;13.13;100;96363.19;;;;
2019/08/21 02:10:29;;;;;;;11.7;9;;;;;;;13.13;100;96363.19;;;;
2019/08/21 02:11:31;;;;;;;11.7;9;;;;;;;13.13;100;96363.19;;;;
2019/08/21 02:12:33;;;;;;;11.7;9;;;;;;;13.13;100;96363.19;;;;
2019/08/21 02:13:37;;;;;;;11.7;9;;;;;;;13.13;100;96363.19;;;;
2019/08/21 02:14:39;;;;;;;11.7;9;;;;;;;13.13;100;96363.19;;;;
2019/08/21 02:15:41;;;;;;;11.7;9;;;;;;;13.13;100;96363.19;;;;
2019/08/21 02:16:44;;;;;;;11.1;9.949999;;;;;;;13.18;100;96353.33;;;;
2019/08/21 02:17:45;;;;;;;11.1;9.949999;;;;;;;13.18;100;96353.33;;;;
2019/08/21 02:18:48;;;;;;;11.1;9.949999;;;;;;;13.18;100;96353.33;;;;
2019/08/21 02:19:50;;;;;;;11.1;9.949999;;;;;;;13.18;100;96353.33;;;;
2019/08/21 02:20:53;;;;;;;11.1;9.949999;;;;;;;13.18;100;96353.33;;;;
2019/08/21 02:21:57;;;;;;;11.1;9.949999;;;;;;;13.18;100;96353.33;;;;
2019/08/21 02:22:58;;;;;;;11.1;9.949999;;;;;;;13.18;100;96353.33;;;;
2019/08/21 02:24:00;;;;;;;11.1;9.949999;;;;;;;13.18;100;96353.33;;;;
2019/08/21 02:25:03;;;;;;;11.1;9.949999;;;;;;;13.18;100;96353.33;;;;
2019/08/21 02:26:09;;;;;;;11.1;9.949999;;;;;;;13.18;100;96353.33;;;;
2019/08/21 02:27:22;;;;;;;11.3;10.05;;;;;;;13.29;100;96374.8;;;;
2019/08/21 02:28:23;;;;;;;11.3;10.05;;;;;;;13.29;100;96374.8;;;;
2019/08/21 02:29:25;;;;;;;11.3;10.05;;;;;;;13.29;100;96374.8;;;;
2019/08/21 02:30:27;;;;;;;11.3;10.05;;;;;;;13.29;100;96374.8;;;;
2019/08/21 02:31:29;;;;;;;11.3;10.05;;;;;;;13.29;100;96374.8;;;;
2019/08/21 02:32:31;;;;;;;11.3;10.05;;;;;;;13.29;100;96374.8;;;;
2019/08/21 02:33:32;;;;;;;11.3;10.05;;;;;;;13.29;100;96374.8;;;;
2019/08/21 02:34:33;;;;;;;11.3;10.05;;;;;;;13.29;100;96374.8;;;;
2019/08/21 02:35:35;;;;;;;11.3;10.05;;;;;;;13.29;100;96374.8;;;;
2019/08/21 02:36:37;;;;;;;11.3;10.05;;;;;;;13.29;100;96374.8;;;;
2019/08/21 02:37:38;;;;;;;11.3;10.05;;;;;;;13.29;100;96374.8;;;;
2019/08/21 02:38:40;;;;;;;9.000001;8.1;;;;;;;13.29;100;96374.28;;;;
2019/08/21 02:39:42;;;;;;;9.000001;8.1;;;;;;;13.29;100;96374.28;;;;
2019/08/21 02:40:43;;;;;;;9.000001;8.1;;;;;;;13.29;100;96374.28;;;;
2019/08/21 02:41:45;;;;;;;9.000001;8.1;;;;;;;13.29;100;96374.28;;;;
2019/08/21 02:42:47;;;;;;;9.000001;8.1;;;;;;;13.29;100;96374.28;;;;
2019/08/21 02:43:49;;;;;;;9.000001;8.1;;;;;;;13.29;100;96374.28;;;;
2019/08/21 02:44:50;;;;;;;9.000001;8.1;;;;;;;13.29;100;96374.28;;;;
2019/08/21 02:45:51;;;;;;;9.000001;8.1;;;;;;;13.29;100;96374.28;;;;
2019/08/21 02:47:07;;;;;;;9.000001;8.1;;;;;;;13.29;100;96374.28;;;;
2019/08/21 02:48:09;;;;;;;9.000001;8.1;;;;;;;13.29;100;96374.28;;;;
2019/08/21 02:49:10;;;;;;;7.15;6.349999;;;;;;;13.31;100;96377.59;;;;
2019/08/21 02:50:12;;;;;;;7.15;6.349999;;;;;;;13.31;100;96377.59;;;;
2019/08/21 02:51:15;;;;;;;7.15;6.349999;;;;;;;13.31;100;96377.59;;;;
2019/08/21 02:52:18;;;;;;;7.15;6.349999;;;;;;;13.31;100;96377.59;;;;
2019/08/21 02:53:19;;;;;;;7.15;6.349999;;;;;;;13.31;100;96377.59;;;;
2019/08/21 02:54:21;;;;;;;7.15;6.349999;;;;;;;13.31;100;96377.59;;;;
2019/08/21 02:55:23;;;;;;;7.15;6.349999;;;;;;;13.31;100;96377.59;;;;
2019/08/21 02:56:25;;;;;;;7.15;6.349999;;;;;;;13.31;100;96377.59;;;;
2019/08/21 02:57:26;;;;;;;7.15;6.349999;;;;;;;13.31;100;96377.59;;;;
2019/08/21 02:58:27;;;;;;;7.15;6.349999;;;;;;;13.31;100;96377.59;;;;
2019/08/21 02:59:29;;;;;;;7.55;6.699999;;;;;;;13.19;100;96377.09;;;;
2019/08/21 03:00:30;;;;;;;7.55;6.699999;;;;;;;13.19;100;96377.09;;;;
2019/08/21 03:01:32;;;;;;;7.55;6.699999;;;;;;;13.19;100;96377.09;;;;
2019/08/21 03:02:34;;;;;;;7.55;6.699999;;;;;;;13.19;100;96377.09;;;;
2019/08/21 03:03:36;;;;;;;7.55;6.699999;;;;;;;13.19;100;96377.09;;;;
2019/08/21 03:04:38;;;;;;;7.55;6.699999;;;;;;;13.19;100;96377.09;;;;
2019/08/21 03:05:39;;;;;;;7.55;6.699999;;;;;;;13.19;100;96377.09;;;;
2019/08/21 03:06:41;;;;;;;7.55;6.699999;;;;;;;13.19;100;96377.09;;;;
2019/08/21 03:07:42;;;;;;;7.55;6.699999;;;;;;;13.19;100;96377.09;;;;
2019/08/21 03:08:44;;;;;;;7.55;6.699999;;;;;;;13.19;100;96377.09;;;;
2019/08/21 03:09:45;;;;;;;7.5;6;;;;;;;13.15;100;96380.49;;;;
2019/08/21 03:10:47;;;;;;;7.5;6;;;;;;;13.15;100;96380.49;;;;
2019/08/21 03:12:02;;;;;;;7.5;6;;;;;;;13.15;100;96380.49;;;;
2019/08/21 03:13:27;;;;;;;7.5;6;;;;;;;13.15;100;96380.49;;;;
2019/08/21 03:14:28;;;;;;;7.5;6;;;;;;;13.15;100;96380.49;;;;
2019/08/21 03:15:32;;;;;;;7.5;6;;;;;;;13.15;100;96380.49;;;;
2019/08/21 03:16:34;;;;;;;7.5;6;;;;;;;13.15;100;96380.49;;;;
2019/08/21 03:17:36;;;;;;;7.5;6;;;;;;;13.15;100;96380.49;;;;
2019/08/21 03:18:38;;;;;;;7.5;6;;;;;;;13.15;100;96380.49;;;;
2019/08/21 03:19:39;;;;;;;7.5;6;;;;;;;13.15;100;96380.49;;;;
2019/08/21 03:20:41;;;;;;;6.95;6.25;;;;;;;13.06;100;96377.76;;;;
2019/08/21 03:21:42;;;;;;;6.95;6.25;;;;;;;13.06;100;96377.76;;;;
2019/08/21 03:22:44;;;;;;;6.95;6.25;;;;;;;13.06;100;96377.76;;;;
2019/08/21 03:23:45;;;;;;;6.95;6.25;;;;;;;13.06;100;96377.76;;;;
2019/08/21 03:24:47;;;;;;;6.95;6.25;;;;;;;13.06;100;96377.76;;;;
2019/08/21 03:25:48;;;;;;;6.95;6.25;;;;;;;13.06;100;96377.76;;;;
2019/08/21 03:26:49;;;;;;;6.95;6.25;;;;;;;13.06;100;96377.76;;;;
2019/08/21 03:27:51;;;;;;;6.95;6.25;;;;;;;13.06;100;96377.76;;;;
2019/08/21 03:28:52;;;;;;;6.95;6.25;;;;;;;13.06;100;96377.76;;;;
2019/08/21 03:29:53;;;;;;;6.95;6.25;;;;;;;13.06;100;96377.76;;;;
2019/08/21 03:30:54;;;;;;;6.85;6.149999;;;;;;;13.02;100;96407.22;;;;
2019/08/21 03:32:08;;;;;;;6.85;6.149999;;;;;;;13.02;100;96407.22;;;;
2019/08/21 03:33:10;;;;;;;6.85;6.149999;;;;;;;13.02;100;96407.22;;;;
2019/08/21 03:34:11;;;;;;;6.85;6.149999;;;;;;;13.02;100;96407.22;;;;
2019/08/21 03:35:13;;;;;;;6.85;6.149999;;;;;;;13.02;100;96407.22;;;;
2019/08/21 03:36:14;;;;;;;6.85;6.149999;;;;;;;13.02;100;96407.22;;;;
2019/08/21 03:37:16;;;;;;;6.85;6.149999;;;;;;;13.02;100;96407.22;;;;
2019/08/21 03:38:17;;;;;;;6.85;6.149999;;;;;;;13.02;100;96407.22;;;;
2019/08/21 03:39:19;;;;;;;6.85;6.149999;;;;;;;13.02;100;96407.22;;;;
2019/08/21 03:40:21;;;;;;;6.85;6.149999;;;;;;;13.02;100;96407.22;;;;
2019/08/21 03:41:22;;;;;;;10;7.65;;;;;;;12.93;100;96397.25;;;;
2019/08/21 03:42:24;;;;;;;10;7.65;;;;;;;12.93;100;96397.25;;;;
2019/08/21 03:43:25;;;;;;;10;7.65;;;;;;;12.93;100;96397.25;;;;
2019/08/21 03:44:27;;;;;;;10;7.65;;;;;;;12.93;100;96397.25;;;;
2019/08/21 03:45:28;;;;;;;10;7.65;;;;;;;12.93;100;96397.25;;;;
2019/08/21 03:46:30;;;;;;;10;7.65;;;;;;;12.93;100;96397.25;;;;
2019/08/21 03:47:31;;;;;;;10;7.65;;;;;;;12.93;100;96397.25;;;;
2019/08/21 03:48:32;;;;;;;10;7.65;;;;;;;12.93;100;96397.25;;;;
2019/08/21 03:49:34;;;;;;;10;7.65;;;;;;;12.93;100;96397.25;;;;
2019/08/21 03:50:35;;;;;;;10;7.65;;;;;;;12.93;100;96397.25;;;;
2019/08/21 03:51:55;;;;;;;10.1;8.4;;;;;;;12.91;100;96394.36;;;;
2019/08/21 03:52:57;;;;;;;10.1;8.4;;;;;;;12.91;100;96394.36;;;;
2019/08/21 03:53:58;;;;;;;10.1;8.4;;;;;;;12.91;100;96394.36;;;;
2019/08/21 03:54:59;;;;;;;10.1;8.4;;;;;;;12.91;100;96394.36;;;;
2019/08/21 03:56:00;;;;;;;10.1;8.4;;;;;;;12.91;100;96394.36;;;;
2019/08/21 03:57:02;;;;;;;10.1;8.4;;;;;;;12.91;100;96394.36;;;;
2019/08/21 03:58:04;;;;;;;10.1;8.4;;;;;;;12.91;100;96394.36;;;;
2019/08/21 03:59:05;;;;;;;10.1;8.4;;;;;;;12.91;100;96394.36;;;;
2019/08/21 04:00:07;;;;;;;10.1;8.4;;;;;;;12.91;100;96394.36;;;;
2019/08/21 04:01:12;;;;;;;10.1;8.4;;;;;;;12.91;100;96394.36;;;;
2019/08/21 04:02:20;;;;;;;10.1;8.4;;;;;;;12.91;100;96394.36;;;;
2019/08/21 04:03:22;;;;;;;10.9;8.999999;;;;;;;12.87;100;96379.16;;;;
2019/08/21 04:04:23;;;;;;;10.9;8.999999;;;;;;;12.87;100;96379.16;;;;
2019/08/21 04:05:25;;;;;;;10.9;8.999999;;;;;;;12.87;100;96379.16;;;;
2019/08/21 04:06:26;;;;;;;10.9;8.999999;;;;;;;12.87;100;96379.16;;;;
2019/08/21 04:07:28;;;;;;;10.9;8.999999;;;;;;;12.87;100;96379.16;;;;
2019/08/21 04:08:29;;;;;;;10.9;8.999999;;;;;;;12.87;100;96379.16;;;;
2019/08/21 04:09:30;;;;;;;10.9;8.999999;;;;;;;12.87;100;96379.16;;;;
2019/08/21 04:10:32;;;;;;;10.9;8.999999;;;;;;;12.87;100;96379.16;;;;
2019/08/21 04:11:46;;;;;;;10.9;8.999999;;;;;;;12.87;100;96379.16;;;;
2019/08/21 04:12:47;;;;;;;10.9;8.999999;;;;;;;12.87;100;96379.16;;;;
2019/08/21 04:13:48;;;;;;;8.299999;7.45;;;;;;;12.88;100;96396.56;;;;
2019/08/21 04:14:50;;;;;;;8.299999;7.45;;;;;;;12.88;100;96396.56;;;;
2019/08/21 04:15:51;;;;;;;8.299999;7.45;;;;;;;12.88;100;96396.56;;;;
2019/08/21 04:16:52;;;;;;;8.299999;7.45;;;;;;;12.88;100;96396.56;;;;
2019/08/21 04:17:54;;;;;;;8.299999;7.45;;;;;;;12.88;100;96396.56;;;;
2019/08/21 04:18:55;;;;;;;8.299999;7.45;;;;;;;12.88;100;96396.56;;;;
2019/08/21 04:19:56;;;;;;;8.299999;7.45;;;;;;;12.88;100;96396.56;;;;
2019/08/21 04:20:57;;;;;;;8.299999;7.45;;;;;;;12.88;100;96396.56;;;;
2019/08/21 04:21:58;;;;;;;8.299999;7.45;;;;;;;12.88;100;96396.56;;;;
2019/08/21 04:23:00;;;;;;;8.299999;7.45;;;;;;;12.88;100;96396.56;;;;
2019/08/21 04:24:02;;;;;;;8.8;6.05;;;;;;;12.87;100;96408.56;;;;
2019/08/21 04:25:05;;;;;;;8.8;6.05;;;;;;;12.87;100;96408.56;;;;
2019/08/21 04:26:07;;;;;;;8.8;6.05;;;;;;;12.87;100;96408.56;;;;
2019/08/21 04:27:08;;;;;;;8.8;6.05;;;;;;;12.87;100;96408.56;;;;
2019/08/21 04:28:09;;;;;;;8.8;6.05;;;;;;;12.87;100;96408.56;;;;
2019/08/21 04:29:10;;;;;;;8.8;6.05;;;;;;;12.87;100;96408.56;;;;
2019/08/21 04:30:12;;;;;;;8.8;6.05;;;;;;;12.87;100;96408.56;;;;
2019/08/21 04:31:14;;;;;;;8.8;6.05;;;;;;;12.87;100;96408.56;;;;
2019/08/21 04:32:15;;;;;;;8.8;6.05;;;;;;;12.87;100;96408.56;;;;
2019/08/21 04:33:16;;;;;;;8.8;6.05;;;;;;;12.87;100;96408.56;;;;
2019/08/21 04:34:18;;;;;;;9.150001;7.900001;;;;;;;12.92;100;96413.62;;;;
2019/08/21 04:35:19;;;;;;;9.150001;7.900001;;;;;;;12.92;100;96413.62;;;;
2019/08/21 04:36:20;;;;;;;9.150001;7.900001;;;;;;;12.92;100;96413.62;;;;
2019/08/21 04:37:22;;;;;;;9.150001;7.900001;;;;;;;12.92;100;96413.62;;;;
2019/08/21 04:38:23;;;;;;;9.150001;7.900001;;;;;;;12.92;100;96413.62;;;;
2019/08/21 04:39:24;;;;;;;9.150001;7.900001;;;;;;;12.92;100;96413.62;;;;
2019/08/21 04:40:25;;;;;;;9.150001;7.900001;;;;;;;12.92;100;96413.62;;;;
2019/08/21 04:41:39;;;;;;;9.150001;7.900001;;;;;;;12.92;100;96413.62;;;;
2019/08/21 04:42:40;;;;;;;9.150001;7.900001;;;;;;;12.92;100;96413.62;;;;
2019/08/21 04:43:41;;;;;;;9.150001;7.900001;;;;;;;12.92;100;96413.62;;;;
2019/08/21 04:44:42;;;;;;;9.150001;7.900001;;;;;;;12.92;100;96413.62;;;;
2019/08/21 04:45:43;;;;;;;8.749998;7.299999;;;;;;;12.93;100;96423.01;;;;
2019/08/21 04:46:46;;;;;;;8.749998;7.299999;;;;;;;12.93;100;96423.01;;;;
2019/08/21 04:47:47;;;;;;;8.749998;7.299999;;;;;;;12.93;100;96423.01;;;;
2019/08/21 04:48:49;;;;;;;8.749998;7.299999;;;;;;;12.93;100;96423.01;;;;
2019/08/21 04:49:50;;;;;;;8.749998;7.299999;;;;;;;12.93;100;96423.01;;;;
2019/08/21 04:50:51;;;;;;;8.749998;7.299999;;;;;;;12.93;100;96423.01;;;;
2019/08/21 04:51:52;;;;;;;8.749998;7.299999;;;;;;;12.93;100;96423.01;;;;
2019/08/21 04:52:54;;;;;;;8.749998;7.299999;;;;;;;12.93;100;96423.01;;;;
2019/08/21 04:53:55;;;;;;;8.749998;7.299999;;;;;;;12.93;100;96423.01;;;;
2019/08/21 04:54:56;;;;;;;8.749998;7.299999;;;;;;;12.93;100;96423.01;;;;
2019/08/21 04:55:57;;;;;;;10.25;8.650001;;;;;;;13.03;100;96414.28;;;;
2019/08/21 04:56:58;;;;;;;10.25;8.650001;;;;;;;13.03;100;96414.28;;;;
2019/08/21 04:57:59;;;;;;;10.25;8.650001;;;;;;;13.03;100;96414.28;;;;
2019/08/21 04:59:00;;;;;;;10.25;8.650001;;;;;;;13.03;100;96414.28;;;;
2019/08/21 05:00:02;;;;;;;10.25;8.650001;;;;;;;13.03;100;96414.28;;;;
2019/08/21 05:01:09;;;;;;;10.25;8.650001;;;;;;;13.03;100;96414.28;;;;
2019/08/21 05:02:10;;;;;;;10.25;8.650001;;;;;;;13.03;100;96414.28;;;;
2019/08/21 05:03:11;;;;;;;10.25;8.650001;;;;;;;13.03;100;96414.28;;;;
2019/08/21 05:04:13;;;;;;;10.25;8.650001;;;;;;;13.03;100;96414.28;;;;
2019/08/21 05:05:14;;;;;;;10.25;8.650001;;;;;;;13.03;100;96414.28;;;;
2019/08/21 05:06:15;;;;;;;10.75;9.3;;;;;;;13.09;100;96415.17;;;;
2019/08/21 05:07:16;;;;;;;10.75;9.3;;;;;;;13.09;100;96415.17;;;;
2019/08/21 05:08:17;;;;;;;10.75;9.3;;;;;;;13.09;100;96415.17;;;;
2019/08/21 05:09:19;;;;;;;10.75;9.3;;;;;;;13.09;100;96415.17;;;;
2019/08/21 05:10:21;;;;;;;10.75;9.3;;;;;;;13.09;100;96415.17;;;;
2019/08/21 05:11:32;;;;;;;10.75;9.3;;;;;;;13.09;100;96415.17;;;;
2019/08/21 05:12:33;;;;;;;10.75;9.3;;;;;;;13.09;100;96415.17;;;;
2019/08/21 05:13:34;;;;;;;10.75;9.3;;;;;;;13.09;100;96415.17;;;;
2019/08/21 05:14:36;;;;;;;10.75;9.3;;;;;;;13.09;100;96415.17;;;;
2019/08/21 05:15:37;;;;;;;10.75;9.3;;;;;;;13.09;100;96415.17;;;;
2019/08/21 05:16:38;;;;;;;12.25;9.4;;;;;;;13.28;100;96422.78;;;;
2019/08/21 05:17:39;;;;;;;12.25;9.4;;;;;;;13.28;100;96422.78;;;;
2019/08/21 05:18:40;;;;;;;12.25;9.4;;;;;;;13.28;100;96422.78;;;;
2019/08/21 05:19:42;;;;;;;12.25;9.4;;;;;;;13.28;100;96422.78;;;;
2019/08/21 05:20:43;;;;;;;12.25;9.4;;;;;;;13.28;100;96422.78;;;;
2019/08/21 05:21:44;;;;;;;12.25;9.4;;;;;;;13.28;100;96422.78;;;;
2019/08/21 05:22:45;;;;;;;12.25;9.4;;;;;;;13.28;100;96422.78;;;;
2019/08/21 05:23:46;;;;;;;12.25;9.4;;;;;;;13.28;100;96422.78;;;;
2019/08/21 05:24:48;;;;;;;12.25;9.4;;;;;;;13.28;100;96422.78;;;;
2019/08/21 05:25:49;;;;;;;12.25;9.4;;;;;;;13.28;100;96422.78;;;;
2019/08/21 05:26:51;;;;;;;12.25;9.4;;;;;;;13.28;100;96422.78;;;;
2019/08/21 05:27:52;;;;;;;9.899999;8.199999;;;;;;;13.47;100;96422.28;;;;
2019/08/21 05:28:53;;;;;;;9.899999;8.199999;;;;;;;13.47;100;96422.28;;;;
2019/08/21 05:29:54;;;;;;;9.899999;8.199999;;;;;;;13.47;100;96422.28;;;;
2019/08/21 05:30:55;;;;;;;9.899999;8.199999;;;;;;;13.47;100;96422.28;;;;
2019/08/21 05:31:56;;;;;;;9.899999;8.199999;;;;;;;13.47;100;96422.28;;;;
2019/08/21 05:32:57;;;;;;;9.899999;8.199999;;;;;;;13.47;100;96422.28;;;;
2019/08/21 05:33:58;;;;;;;9.899999;8.199999;;;;;;;13.47;100;96422.28;;;;
2019/08/21 05:34:59;;;;;;;9.899999;8.199999;;;;;;;13.47;100;96422.28;;;;
2019/08/21 05:36:01;;;;;;;9.899999;8.199999;;;;;;;13.47;100;96422.28;;;;
2019/08/21 05:37:03;;;;;;;9.899999;8.199999;;;;;;;13.47;100;96422.28;;;;
2019/08/21 05:38:04;;;;;;;8.8;7.950001;;;;;;;13.75;100;96417.55;;;;
2019/08/21 05:39:09;;;;;;;8.8;7.950001;;;;;;;13.75;100;96417.55;;;;
2019/08/21 05:40:11;;;;;;;8.8;7.950001;;;;;;;13.75;100;96417.55;;;;
2019/08/21 05:41:12;;;;;;;8.8;7.950001;;;;;;;13.75;100;96417.55;;;;
2019/08/21 05:42:13;;;;;;;8.8;7.950001;;;;;;;13.75;100;96417.55;;;;
2019/08/21 05:43:14;;;;;;;8.8;7.950001;;;;;;;13.75;100;96417.55;;;;
2019/08/21 05:44:16;;;;;;;8.8;7.950001;;;;;;;13.75;100;96417.55;;;;
2019/08/21 05:45:17;;;;;;;8.8;7.950001;;;;;;;13.75;100;96417.55;;;;
2019/08/21 05:46:18;;;;;;;8.8;7.950001;;;;;;;13.75;100;96417.55;;;;
2019/08/21 05:47:19;;;;;;;8.8;7.950001;;;;;;;13.75;100;96417.55;;;;
2019/08/21 05:48:20;;;;;;;8.8;7.950001;;;;;;;13.75;100;96417.55;;;;
2019/08/21 05:49:26;;;;;;;7.45;6.599999;;;;;;;14;100;96431;;;;
2019/08/21 05:50:27;;;;;;;7.45;6.599999;;;;;;;14;100;96431;;;;
2019/08/21 05:51:36;;;;;;;7.45;6.599999;;;;;;;14;100;96431;;;;
2019/08/21 05:52:37;;;;;;;7.45;6.599999;;;;;;;14;100;96431;;;;
2019/08/21 05:53:38;;;;;;;7.45;6.599999;;;;;;;14;100;96431;;;;
2019/08/21 05:54:39;;;;;;;7.45;6.599999;;;;;;;14;100;96431;;;;
2019/08/21 05:55:40;;;;;;;7.45;6.599999;;;;;;;14;100;96431;;;;
2019/08/21 05:56:42;;;;;;;7.45;6.599999;;;;;;;14;100;96431;;;;
2019/08/21 05:57:43;;;;;;;7.45;6.599999;;;;;;;14;100;96431;;;;
2019/08/21 05:58:44;;;;;;;7.45;6.599999;;;;;;;14;100;96431;;;;
2019/08/21 05:59:45;;;;;;;9.25;6.799999;;;;;;;14.3;100;96454.57;;;;
2019/08/21 06:00:46;;;;;;;9.25;6.799999;;;;;;;14.3;100;96454.57;;;;
2019/08/21 06:01:48;;;;;;;9.25;6.799999;;;;;;;14.3;100;96454.57;;;;
2019/08/21 06:02:49;;;;;;;9.25;6.799999;;;;;;;14.3;100;96454.57;;;;
2019/08/21 06:03:50;;;;;;;9.25;6.799999;;;;;;;14.3;100;96454.57;;;;
2019/08/21 06:04:51;;;;;;;9.25;6.799999;;;;;;;14.3;100;96454.57;;;;
2019/08/21 06:05:52;;;;;;;9.25;6.799999;;;;;;;14.3;100;96454.57;;;;
2019/08/21 06:06:53;;;;;;;9.25;6.799999;;;;;;;14.3;100;96454.57;;;;
2019/08/21 06:07:55;;;;;;;9.25;6.799999;;;;;;;14.3;100;96454.57;;;;
2019/08/21 06:08:56;;;;;;;9.25;6.799999;;;;;;;14.3;100;96454.57;;;;
2019/08/21 06:09:57;;;;;;;7.35;6.650001;;;;;;;14.63;100;96457.61;;;;
2019/08/21 06:10:58;;;;;;;7.35;6.650001;;;;;;;14.63;100;96457.61;;;;